createdAt,value
2022-12-17T00:00:34.291Z,-2.01
2022-12-17T00:03:20.283Z,-2.05
2022-12-17T00:06:05.650Z,-2.06
2022-12-17T00:08:51.242Z,-2.09
2022-12-17T00:11:37.157Z,-2.11
2022-12-17T00:14:22.677Z,-2.10
2022-12-17T00:17:07.443Z,-2.12
2022-12-17T00:19:52.322Z,-2.12
2022-12-17T00:22:41.755Z,-2.14
2022-12-17T00:25:27.375Z,-2.19
2022-12-17T00:28:12.426Z,-2.18
2022-12-17T00:31:17.780Z,-2.22
2022-12-17T00:34:02.971Z,-2.23
2022-12-17T00:36:48.278Z,-2.16
2022-12-17T00:39:33.582Z,-2.11
2022-12-17T00:42:18.491Z,-2.15
2022-12-17T00:45:03.677Z,-2.18
2022-12-17T00:47:48.425Z,-2.17
2022-12-17T00:50:33.895Z,-2.21
2022-12-17T00:53:19.413Z,-2.22
2022-12-17T00:56:04.496Z,-2.21
2022-12-17T00:58:50.075Z,-2.22
2022-12-17T01:01:35.590Z,-2.20
2022-12-17T01:04:20.706Z,-2.17
2022-12-17T01:07:05.985Z,-2.19
2022-12-17T01:09:50.992Z,-2.19
2022-12-17T01:12:36.298Z,-2.16
2022-12-17T01:15:21.541Z,-2.15
2022-12-17T01:18:07.080Z,-2.10
2022-12-17T01:20:52.034Z,-2.07
2022-12-17T01:23:38.084Z,-2.06
2022-12-17T01:26:23.863Z,-2.09
2022-12-17T01:29:09.401Z,-2.10
2022-12-17T01:31:54.815Z,-2.11
2022-12-17T01:34:39.922Z,-2.15
2022-12-17T01:37:24.796Z,-2.13
2022-12-17T01:40:10.244Z,-2.12
2022-12-17T01:43:00.036Z,-2.11
2022-12-17T01:45:51.413Z,-2.09
2022-12-17T01:48:37.124Z,-2.07
2022-12-17T01:51:23.221Z,-2.02
2022-12-17T01:54:12.134Z,-1.98
2022-12-17T01:57:00.577Z,-1.92
2022-12-17T02:00:01.808Z,-1.88
2022-12-17T02:02:47.610Z,-1.80
2022-12-17T02:05:33.179Z,-1.74
2022-12-17T02:08:25.205Z,-1.70
2022-12-17T02:11:30.029Z,-1.67
2022-12-17T02:14:43.258Z,-1.64
2022-12-17T02:17:35.602Z,-1.63
2022-12-17T02:20:39.695Z,-1.56
2022-12-17T02:23:30.827Z,-1.52
2022-12-17T02:26:25.313Z,-1.46
2022-12-17T02:29:11.810Z,-1.41
2022-12-17T02:32:02.717Z,-1.34
2022-12-17T02:34:47.977Z,-1.31
2022-12-17T02:37:33.396Z,-1.29
2022-12-17T02:40:18.767Z,-1.22
2022-12-17T02:43:07.248Z,-1.19
2022-12-17T02:45:52.684Z,-1.13
2022-12-17T02:48:37.694Z,-1.07
2022-12-17T02:51:27.686Z,-1.04
2022-12-17T02:54:13.076Z,-1.02
2022-12-17T02:56:58.410Z,-1.02
2022-12-17T02:59:43.846Z,-1.04
2022-12-17T03:02:28.747Z,-1.08
2022-12-17T03:05:42.894Z,-1.08
2022-12-17T03:08:19.250Z,-0.99
2022-12-17T03:11:04.523Z,-0.97
2022-12-17T03:13:50.041Z,-0.95
2022-12-17T03:16:37.997Z,-0.95
2022-12-17T03:19:23.689Z,-0.94
2022-12-17T03:22:09.177Z,-0.94
2022-12-17T03:24:54.256Z,-0.96
2022-12-17T03:27:39.679Z,-1.00
2022-12-17T03:30:25.468Z,-1.04
2022-12-17T03:33:10.574Z,-1.04
2022-12-17T03:35:56.711Z,-0.97
2022-12-17T03:38:41.963Z,-0.94
2022-12-17T03:41:27.364Z,-0.92
2022-12-17T03:44:12.565Z,-0.92
2022-12-17T03:46:57.312Z,-0.94
2022-12-17T03:49:42.824Z,-1.03
2022-12-17T03:52:28.251Z,-1.09
2022-12-17T03:55:13.297Z,-1.13
2022-12-17T03:58:03.500Z,-1.17
2022-12-17T04:00:48.850Z,-1.26
2022-12-17T04:03:34.634Z,-1.32
2022-12-17T04:06:20.051Z,-1.36
2022-12-17T04:09:05.020Z,-1.34
2022-12-17T04:11:50.480Z,-1.38
2022-12-17T04:14:35.147Z,-1.38
2022-12-17T04:17:20.563Z,-1.38
2022-12-17T04:20:05.894Z,-1.42
2022-12-17T04:22:51.398Z,-1.42
2022-12-17T04:25:36.606Z,-1.44
2022-12-17T04:28:21.732Z,-1.53
2022-12-17T04:31:06.658Z,-1.56
2022-12-17T04:33:51.802Z,-1.57
2022-12-17T04:36:36.619Z,-1.56
2022-12-17T04:39:21.986Z,-1.57
2022-12-17T04:42:06.963Z,-1.60
2022-12-17T04:44:52.424Z,-1.60
2022-12-17T04:47:37.417Z,-1.62
2022-12-17T04:50:22.927Z,-1.64
2022-12-17T04:53:07.890Z,-1.65
2022-12-17T04:55:52.908Z,-1.67
2022-12-17T04:58:37.670Z,-1.65
2022-12-17T05:01:23.219Z,-1.66
2022-12-17T05:04:08.461Z,-1.69
2022-12-17T05:07:06.975Z,-1.73
2022-12-17T05:09:52.005Z,-1.71
2022-12-17T05:12:36.933Z,-1.70
2022-12-17T05:15:22.791Z,-1.70
2022-12-17T05:18:13.298Z,-1.66
2022-12-17T05:20:58.387Z,-1.64
2022-12-17T05:23:43.827Z,-1.59
2022-12-17T05:26:41.647Z,-1.55
2022-12-17T05:29:27.676Z,-1.47
2022-12-17T05:32:13.404Z,-1.47
2022-12-17T05:34:58.791Z,-1.49
2022-12-17T05:37:44.064Z,-1.46
2022-12-17T05:40:29.794Z,-1.48
2022-12-17T05:43:16.450Z,-1.49
2022-12-17T05:46:02.362Z,-1.50
2022-12-17T05:48:48.548Z,-1.49
2022-12-17T05:51:38.504Z,-1.52
2022-12-17T05:54:24.449Z,-1.51
2022-12-17T05:57:09.832Z,-1.53
2022-12-17T05:59:55.209Z,-1.49
2022-12-17T06:02:40.724Z,-1.50
2022-12-17T06:05:26.450Z,-1.51
2022-12-17T06:08:11.808Z,-1.54
2022-12-17T06:11:10.341Z,-1.56
2022-12-17T06:13:55.833Z,-1.55
2022-12-17T06:16:41.038Z,-1.56
2022-12-17T06:19:26.566Z,-1.58
2022-12-17T06:22:11.312Z,-1.58
2022-12-17T06:24:57.148Z,-1.59
2022-12-17T06:27:42.453Z,-1.60
2022-12-17T06:30:27.773Z,-1.56
2022-12-17T06:33:25.801Z,-1.55
2022-12-17T06:36:18.054Z,-1.52
2022-12-17T06:39:06.506Z,-1.52
2022-12-17T06:41:51.838Z,-1.55
2022-12-17T06:44:37.528Z,-1.51
2022-12-17T06:47:22.765Z,-1.54
2022-12-17T06:50:07.994Z,-1.54
2022-12-17T06:52:52.908Z,-1.56
2022-12-17T06:55:38.368Z,-1.56
2022-12-17T06:58:23.332Z,-1.57
2022-12-17T07:01:10.339Z,-1.55
2022-12-17T07:03:55.580Z,-1.55
2022-12-17T07:06:40.855Z,-1.58
2022-12-17T07:09:26.298Z,-1.60
2022-12-17T07:12:11.513Z,-1.59
2022-12-17T07:14:56.765Z,-1.60
2022-12-17T07:17:42.166Z,-1.59
2022-12-17T07:20:28.005Z,-1.59
2022-12-17T07:23:14.938Z,-1.56
2022-12-17T07:26:00.237Z,-1.54
2022-12-17T07:28:45.605Z,-1.53
2022-12-17T07:31:31.423Z,-1.49
2022-12-17T07:34:16.508Z,-1.42
2022-12-17T07:37:01.486Z,-1.42
2022-12-17T07:39:46.874Z,-1.46
2022-12-17T07:42:31.958Z,-1.43
2022-12-17T07:45:17.380Z,-1.37
2022-12-17T07:48:10.277Z,-1.29
2022-12-17T07:50:55.663Z,-1.22
2022-12-17T07:53:41.621Z,-1.20
2022-12-17T07:56:26.883Z,-1.15
2022-12-17T07:59:12.215Z,-1.07
2022-12-17T08:01:57.600Z,-1.01
2022-12-17T08:04:42.833Z,-0.97
2022-12-17T08:07:28.326Z,-0.97
2022-12-17T08:10:13.491Z,-0.95
2022-12-17T08:12:58.710Z,-0.95
2022-12-17T08:15:43.613Z,-0.93
2022-12-17T08:18:29.087Z,-0.93
2022-12-17T08:21:14.554Z,-0.95
2022-12-17T08:23:59.714Z,-0.92
2022-12-17T08:26:48.071Z,-0.90
2022-12-17T08:29:33.851Z,-0.92
2022-12-17T08:32:19.287Z,-0.92
2022-12-17T08:35:04.450Z,-0.94
2022-12-17T08:38:11.069Z,-0.93
2022-12-17T08:40:56.188Z,-0.92
2022-12-17T08:43:41.852Z,-0.93
2022-12-17T08:46:26.995Z,-0.91
2022-12-17T08:49:12.189Z,-0.90
2022-12-17T08:51:57.099Z,-0.88
2022-12-17T08:54:42.480Z,-0.84
2022-12-17T08:57:31.704Z,-0.85
2022-12-17T09:00:17.243Z,-0.81
2022-12-17T09:03:02.423Z,-0.78
2022-12-17T09:05:47.540Z,-0.75
2022-12-17T09:08:32.943Z,-0.78
2022-12-17T09:11:18.951Z,-0.75
2022-12-17T09:14:04.175Z,-0.72
2022-12-17T09:16:49.733Z,-0.68
2022-12-17T09:19:35.164Z,-0.63
2022-12-17T09:22:20.567Z,-0.59
2022-12-17T09:25:06.125Z,-0.59
2022-12-17T09:27:51.409Z,-0.52
2022-12-17T09:30:36.903Z,-0.43
2022-12-17T09:33:21.990Z,-0.41
2022-12-17T09:36:07.533Z,-0.36
2022-12-17T09:38:52.610Z,-0.31
2022-12-17T09:41:48.663Z,-0.25
2022-12-17T09:44:51.066Z,-0.20
2022-12-17T09:48:33.536Z,-0.15
2022-12-17T09:51:18.583Z,-0.13
2022-12-17T09:54:07.538Z,-0.07
2022-12-17T09:56:55.083Z,-0.03
2022-12-17T09:59:53.346Z,0.06
2022-12-17T10:02:45.013Z,0.13
2022-12-17T10:05:50.843Z,0.22
2022-12-17T10:08:39.190Z,0.32
2022-12-17T10:11:39.437Z,0.41
2022-12-17T10:14:34.511Z,0.48
2022-12-17T10:17:19.386Z,0.54
2022-12-17T10:20:09.294Z,0.60
2022-12-17T10:23:05.222Z,0.67
2022-12-17T10:25:50.422Z,0.74
2022-12-17T10:28:41.905Z,0.74
2022-12-17T10:31:41.412Z,0.80
2022-12-17T10:34:36.362Z,0.85
2022-12-17T10:37:22.924Z,0.86
2022-12-17T10:40:19.453Z,0.93
2022-12-17T10:43:04.830Z,1.00
2022-12-17T10:45:53.185Z,1.07
2022-12-17T10:48:43.826Z,1.12
2022-12-17T10:51:49.382Z,1.23
2022-12-17T10:54:34.550Z,1.30
2022-12-17T10:57:20.714Z,1.39
2022-12-17T11:00:06.377Z,1.52
2022-12-17T11:02:52.013Z,1.64
2022-12-17T11:05:47.014Z,1.76
2022-12-17T11:08:34.763Z,1.86
2022-12-17T11:11:23.271Z,1.95
2022-12-17T11:14:09.890Z,2.03
2022-12-17T11:17:07.385Z,2.11
2022-12-17T11:20:04.346Z,2.17
2022-12-17T11:23:03.751Z,2.26
2022-12-17T11:26:00.293Z,2.33
2022-12-17T11:28:48.045Z,2.39
2022-12-17T11:31:36.242Z,2.39
2022-12-17T11:34:43.567Z,2.47
2022-12-17T11:37:39.144Z,2.57
2022-12-17T11:40:41.856Z,2.64
2022-12-17T11:43:39.936Z,2.73
2022-12-17T11:46:54.267Z,2.71
2022-12-17T11:50:00.517Z,2.76
2022-12-17T11:53:00.932Z,2.86
2022-12-17T11:56:16.114Z,2.92
2022-12-17T11:59:11.141Z,2.95
2022-12-17T12:02:22.959Z,2.99
2022-12-17T12:05:23.238Z,3.00
2022-12-17T12:08:32.344Z,3.02
2022-12-17T12:11:44.245Z,3.11
2022-12-17T12:14:48.033Z,3.15
2022-12-17T12:17:49.589Z,3.19
2022-12-17T12:21:06.618Z,3.20
2022-12-17T12:24:16.857Z,3.30
2022-12-17T12:27:26.465Z,3.31
2022-12-17T12:30:28.886Z,3.28
2022-12-17T12:33:27.862Z,3.27
2022-12-17T12:36:20.932Z,3.26
2022-12-17T12:39:11.779Z,3.23
2022-12-17T12:42:08.810Z,3.16
2022-12-17T12:45:03.402Z,3.11
2022-12-17T12:48:17.439Z,3.08
2022-12-17T12:51:34.275Z,3.16
2022-12-17T12:54:39.946Z,3.10
2022-12-17T12:57:57.834Z,3.13
2022-12-17T13:00:47.841Z,3.12
2022-12-17T13:03:42.244Z,3.12
2022-12-17T13:06:09.468Z,3.07
2022-12-17T13:08:37.443Z,3.05
2022-12-17T13:11:28.715Z,3.03
2022-12-17T13:14:01.396Z,2.98
2022-12-17T13:16:50.148Z,2.92
2022-12-17T13:19:36.847Z,2.91
2022-12-17T13:22:21.931Z,2.82
2022-12-17T13:24:56.802Z,2.82
2022-12-17T13:27:36.367Z,2.85
2022-12-17T13:30:18.287Z,2.80
2022-12-17T13:32:58.987Z,2.85
2022-12-17T13:35:37.389Z,2.87
2022-12-17T13:38:16.717Z,2.85
2022-12-17T13:41:10.519Z,2.84
2022-12-17T13:43:45.752Z,2.87
2022-12-17T13:46:25.218Z,2.90
2022-12-17T13:49:03.356Z,2.93
2022-12-17T13:51:33.402Z,2.91
2022-12-17T13:54:03.135Z,2.87
2022-12-17T13:56:31.672Z,2.90
2022-12-17T13:59:08.415Z,2.87
2022-12-17T14:01:45.840Z,2.87
2022-12-17T14:04:26.621Z,2.94
2022-12-17T14:06:56.788Z,2.95
2022-12-17T14:09:32.414Z,2.91
2022-12-17T14:12:20.510Z,2.91
2022-12-17T14:14:49.778Z,2.99
2022-12-17T14:17:23.143Z,2.99
2022-12-17T14:19:56.438Z,2.92
2022-12-17T14:22:44.976Z,2.95
2022-12-17T14:25:21.014Z,2.92
2022-12-17T14:27:54.031Z,2.89
2022-12-17T14:31:02.552Z,2.86
2022-12-17T14:33:34.165Z,2.88
2022-12-17T14:36:06.910Z,2.87
2022-12-17T14:38:43.961Z,2.85
2022-12-17T14:41:33.725Z,2.88
2022-12-17T14:44:02.327Z,2.93
2022-12-17T14:46:31.085Z,2.95
2022-12-17T14:49:05.021Z,2.97
2022-12-17T14:51:35.785Z,3.00
2022-12-17T14:54:34.644Z,3.04
2022-12-17T14:57:06.125Z,3.01
2022-12-17T14:59:38.425Z,3.02
2022-12-17T15:02:20.366Z,3.01
2022-12-17T15:04:47.252Z,2.95
2022-12-17T15:07:18.018Z,2.98
2022-12-17T15:09:44.958Z,2.95
2022-12-17T15:12:11.642Z,2.96
2022-12-17T15:14:38.253Z,2.96
2022-12-17T15:17:06.081Z,2.92
2022-12-17T15:19:33.066Z,2.88
2022-12-17T15:21:59.659Z,2.90
2022-12-17T15:24:27.170Z,2.93
2022-12-17T15:26:54.816Z,2.92
2022-12-17T15:29:22.010Z,2.93
2022-12-17T15:31:48.701Z,2.88
2022-12-17T15:34:15.821Z,2.89
2022-12-17T15:36:42.468Z,2.86
2022-12-17T15:39:10.819Z,2.80
2022-12-17T15:41:56.367Z,2.76
2022-12-17T15:44:23.322Z,2.80
2022-12-17T15:46:53.814Z,2.82
2022-12-17T15:49:21.245Z,2.78
2022-12-17T15:51:47.891Z,2.77
2022-12-17T15:54:14.494Z,2.70
2022-12-17T15:56:41.146Z,2.70
2022-12-17T15:59:11.310Z,2.70
2022-12-17T16:01:39.245Z,2.66
2022-12-17T16:04:10.416Z,2.64
2022-12-17T16:06:40.543Z,2.62
2022-12-17T16:09:07.184Z,2.55
2022-12-17T16:11:33.864Z,2.49
2022-12-17T16:14:00.650Z,2.47
2022-12-17T16:16:29.781Z,2.46
2022-12-17T16:18:56.419Z,2.50
2022-12-17T16:21:23.031Z,2.51
2022-12-17T16:23:51.973Z,2.51
2022-12-17T16:26:18.693Z,2.46
2022-12-17T16:28:45.655Z,2.40
2022-12-17T16:31:15.213Z,2.37
2022-12-17T16:33:43.799Z,2.35
2022-12-17T16:36:15.919Z,2.34
2022-12-17T16:38:48.257Z,2.33
2022-12-17T16:41:15.831Z,2.29
2022-12-17T16:43:42.630Z,2.28
2022-12-17T16:46:32.201Z,2.26
2022-12-17T16:49:04.604Z,2.26
2022-12-17T16:51:31.420Z,2.31
2022-12-17T16:53:58.820Z,2.32
2022-12-17T16:56:28.025Z,2.30
2022-12-17T16:58:55.542Z,2.26
2022-12-17T17:01:25.987Z,2.24
2022-12-17T17:03:53.218Z,2.21
2022-12-17T17:06:20.081Z,2.12
2022-12-17T17:08:47.062Z,2.04
2022-12-17T17:11:22.565Z,2.00
2022-12-17T17:13:51.491Z,1.95
2022-12-17T17:16:20.148Z,1.94
2022-12-17T17:18:47.628Z,1.86
2022-12-17T17:21:20.122Z,1.80
2022-12-17T17:23:47.865Z,1.83
2022-12-17T17:26:15.916Z,1.76
2022-12-17T17:28:43.110Z,1.74
2022-12-17T17:31:12.521Z,1.68
2022-12-17T17:33:46.719Z,1.64
2022-12-17T17:36:27.365Z,1.63
2022-12-17T17:38:58.433Z,1.58
2022-12-17T17:41:27.705Z,1.58
2022-12-17T17:43:56.220Z,1.60
2022-12-17T17:46:23.359Z,1.51
2022-12-17T17:48:56.624Z,1.51
2022-12-17T17:52:07.135Z,1.52
2022-12-17T17:54:19.090Z,1.46
2022-12-17T17:56:49.112Z,1.46
2022-12-17T17:59:20.625Z,1.42
2022-12-17T18:01:52.096Z,1.38
2022-12-17T18:04:21.343Z,1.36
2022-12-17T18:07:16.468Z,1.32
2022-12-17T18:09:36.385Z,1.35
2022-12-17T18:12:23.483Z,1.36
2022-12-17T18:15:14.126Z,1.35
2022-12-17T18:17:37.419Z,1.34
2022-12-17T18:20:04.572Z,1.33
2022-12-17T18:22:31.226Z,1.34
2022-12-17T18:24:57.815Z,1.33
2022-12-17T18:27:24.506Z,1.30
2022-12-17T18:29:51.143Z,1.31
2022-12-17T18:32:17.759Z,1.28
2022-12-17T18:34:44.600Z,1.29
2022-12-17T18:37:11.254Z,1.32
2022-12-17T18:39:38.738Z,1.30
2022-12-17T18:42:24.526Z,1.28
2022-12-17T18:44:51.167Z,1.25
2022-12-17T18:47:18.869Z,1.24
2022-12-17T18:49:45.580Z,1.20
2022-12-17T18:52:16.709Z,1.22
2022-12-17T18:54:44.586Z,1.21
2022-12-17T18:57:11.348Z,1.22
2022-12-17T18:59:38.581Z,1.18
2022-12-17T19:02:05.580Z,1.15
2022-12-17T19:04:33.331Z,1.11
2022-12-17T19:07:00.156Z,1.13
2022-12-17T19:09:31.488Z,1.12
2022-12-17T19:11:58.641Z,1.12
2022-12-17T19:14:25.821Z,1.07
2022-12-17T19:16:55.474Z,1.08
2022-12-17T19:19:23.090Z,1.04
2022-12-17T19:21:52.069Z,0.96
2022-12-17T19:24:19.602Z,0.95
2022-12-17T19:26:46.310Z,0.90
2022-12-17T19:29:14.419Z,0.85
2022-12-17T19:31:41.787Z,0.78
2022-12-17T19:34:11.980Z,0.71
2022-12-17T19:36:43.326Z,0.65
2022-12-17T19:39:19.166Z,0.56
2022-12-17T19:41:46.260Z,0.47
2022-12-17T19:44:15.434Z,0.40
2022-12-17T19:46:42.513Z,0.33
2022-12-17T19:49:12.183Z,0.28
2022-12-17T19:51:41.255Z,0.22
2022-12-17T19:54:09.531Z,0.11
2022-12-17T19:56:36.898Z,0.06
2022-12-17T19:59:07.245Z,-0.04
2022-12-17T20:01:41.024Z,-0.08
2022-12-17T20:04:07.873Z,-0.19
2022-12-17T20:06:35.918Z,-0.21
2022-12-17T20:09:05.365Z,-0.23
2022-12-17T20:11:35.644Z,-0.27
2022-12-17T20:14:18.022Z,-0.29
2022-12-17T20:16:44.768Z,-0.32
2022-12-17T20:19:17.397Z,-0.32
2022-12-17T20:21:44.805Z,-0.40
2022-12-17T20:24:12.180Z,-0.38
2022-12-17T20:26:39.422Z,-0.38
2022-12-17T20:29:06.881Z,-0.43
2022-12-17T20:31:34.586Z,-0.51
2022-12-17T20:34:03.633Z,-0.54
2022-12-17T20:36:30.620Z,-0.57
2022-12-17T20:38:58.062Z,-0.63
2022-12-17T20:41:27.246Z,-0.61
2022-12-17T20:43:54.876Z,-0.63
2022-12-17T20:46:23.432Z,-0.62
2022-12-17T20:48:51.963Z,-0.60
2022-12-17T20:51:21.754Z,-0.59
2022-12-17T20:53:50.016Z,-0.61
2022-12-17T20:56:20.691Z,-0.59
2022-12-17T20:58:48.305Z,-0.58
2022-12-17T21:01:21.438Z,-0.62
2022-12-17T21:03:50.603Z,-0.63
2022-12-17T21:06:23.866Z,-0.59
2022-12-17T21:08:52.872Z,-0.58
2022-12-17T21:11:24.077Z,-0.57
2022-12-17T21:13:51.560Z,-0.55
2022-12-17T21:16:21.684Z,-0.52
2022-12-17T21:18:48.778Z,-0.52
2022-12-17T21:21:18.545Z,-0.51
2022-12-17T21:23:46.801Z,-0.50
2022-12-17T21:26:16.373Z,-0.47
2022-12-17T21:28:47.612Z,-0.49
2022-12-17T21:31:21.863Z,-0.47
2022-12-17T21:33:50.626Z,-0.51
2022-12-17T21:36:19.922Z,-0.51
2022-12-17T21:38:47.353Z,-0.59
2022-12-17T21:41:23.474Z,-0.61
2022-12-17T21:43:54.903Z,-0.56
2022-12-17T21:46:22.572Z,-0.56
2022-12-17T21:48:50.063Z,-0.59
2022-12-17T21:51:18.121Z,-0.59
2022-12-17T21:53:45.168Z,-0.61
2022-12-17T21:56:20.934Z,-0.63
2022-12-17T21:58:48.567Z,-0.69
2022-12-17T22:01:25.258Z,-0.79
2022-12-17T22:03:54.294Z,-0.79
2022-12-17T22:06:27.153Z,-0.85
2022-12-17T22:09:03.957Z,-0.84
2022-12-17T22:11:44.257Z,-0.88
2022-12-17T22:14:18.823Z,-0.94
2022-12-17T22:16:49.538Z,-0.91
2022-12-17T22:19:22.794Z,-0.90
2022-12-17T22:21:56.048Z,-0.95
2022-12-17T22:24:25.001Z,-0.98
2022-12-17T22:26:56.163Z,-0.94
2022-12-17T22:29:48.935Z,-1.04
2022-12-17T22:32:33.913Z,-1.11
2022-12-17T22:37:13.181Z,-1.13
2022-12-17T22:44:00.790Z,-1.10
2022-12-17T22:44:37.806Z,-1.10
2022-12-17T22:44:49.499Z,-1.07
2022-12-17T22:46:17.677Z,-1.12
2022-12-17T22:48:44.473Z,-1.15
2022-12-17T22:51:16.389Z,-1.20
2022-12-17T22:53:49.674Z,-1.22
2022-12-17T22:56:47.466Z,-1.26
2022-12-17T22:59:05.110Z,-1.28
2022-12-17T23:01:32.816Z,-1.30
2022-12-17T23:04:01.404Z,-1.38
2022-12-17T23:06:28.397Z,-1.41
2022-12-17T23:08:55.825Z,-1.42
2022-12-17T23:11:25.132Z,-1.49
2022-12-17T23:13:52.449Z,-1.49
2022-12-17T23:16:19.756Z,-1.45
2022-12-17T23:18:47.817Z,-1.37
2022-12-17T23:21:20.509Z,-1.41
2022-12-17T23:23:47.193Z,-1.42
2022-12-17T23:26:20.509Z,-1.41
2022-12-17T23:28:47.588Z,-1.45
2022-12-17T23:31:17.807Z,-1.42
2022-12-17T23:33:45.706Z,-1.42
2022-12-17T23:36:22.327Z,-1.38
2022-12-17T23:38:49.432Z,-1.38
2022-12-17T23:41:20.672Z,-1.35
2022-12-17T23:43:48.606Z,-1.35
2022-12-17T23:46:16.454Z,-1.37
2022-12-17T23:48:45.787Z,-1.42
2022-12-17T23:51:14.904Z,-1.39
2022-12-17T23:53:42.882Z,-1.41
2022-12-17T23:56:11.317Z,-1.39
2022-12-17T23:58:39.652Z,-1.41
